Ouargla, Algeria
Current Conditions -  °F | °C
As of 1:00 AM on Tuesday 23 Dec 2014 (Local Time) from DAUU Reporting Station
Scattered Clouds Scattered Clouds  
Wind Chill: 10°   Ceiling: Unl
Heat Index: 10°   Visibility: 6mi
Dew Point:   Wind: 7mph
Humidity: 71%   Direction: 70°ENE
Pressure: 30.48"   Gusts: NA
Location:  31.92°N, 5.4°E
Report Text: DAUU 230000Z 07006KT 9999 SCT046 10/05 Q1032
Loading
Personal Weather Stations






























Interactive Weather Map New forecast layout! Learn more

10-Day Weather Forecast

Advertisements
Track Severe Weather on mobile